sensor_id;sensor_type;location;lat;lon;timestamp;P1;durP1;ratioP1;P2;durP2;ratioP2
52158;SDS011;38145;53.182;6.284;2023-05-10T00:00:21;13.57;;;11.70;;
52158;SDS011;38145;53.182;6.284;2023-05-10T00:02:49;10.02;;;9.00;;
52158;SDS011;38145;53.182;6.284;2023-05-10T00:05:15;10.70;;;9.57;;
52158;SDS011;38145;53.182;6.284;2023-05-10T00:07:41;10.32;;;9.25;;
52158;SDS011;38145;53.182;6.284;2023-05-10T00:10:10;12.63;;;10.15;;
52158;SDS011;38145;53.182;6.284;2023-05-10T00:12:36;10.63;;;9.52;;
52158;SDS011;38145;53.182;6.284;2023-05-10T00:15:02;11.55;;;9.07;;
52158;SDS011;38145;53.182;6.284;2023-05-10T00:17:29;11.23;;;9.63;;
52158;SDS011;38145;53.182;6.284;2023-05-10T00:19:55;9.45;;;8.35;;
52158;SDS011;38145;53.182;6.284;2023-05-10T00:22:21;9.45;;;8.55;;
52158;SDS011;38145;53.182;6.284;2023-05-10T00:24:47;10.25;;;8.57;;
52158;SDS011;38145;53.182;6.284;2023-05-10T00:27:13;9.85;;;8.85;;
52158;SDS011;38145;53.182;6.284;2023-05-10T00:29:39;9.55;;;8.52;;
52158;SDS011;38145;53.182;6.284;2023-05-10T00:32:06;10.50;;;8.95;;
52158;SDS011;38145;53.182;6.284;2023-05-10T00:34:32;9.65;;;8.65;;
52158;SDS011;38145;53.182;6.284;2023-05-10T00:36:58;12.95;;;9.25;;
52158;SDS011;38145;53.182;6.284;2023-05-10T00:39:24;10.38;;;9.38;;
52158;SDS011;38145;53.182;6.284;2023-05-10T00:41:51;12.65;;;10.05;;
52158;SDS011;38145;53.182;6.284;2023-05-10T00:44:17;12.18;;;10.25;;
52158;SDS011;38145;53.182;6.284;2023-05-10T00:46:43;11.55;;;9.75;;
52158;SDS011;38145;53.182;6.284;2023-05-10T00:49:10;11.95;;;10.70;;
52158;SDS011;38145;53.182;6.284;2023-05-10T00:51:37;12.13;;;10.48;;
52158;SDS011;38145;53.182;6.284;2023-05-10T00:54:03;13.40;;;10.45;;
52158;SDS011;38145;53.182;6.284;2023-05-10T00:56:30;11.32;;;9.90;;
52158;SDS011;38145;53.182;6.284;2023-05-10T00:58:56;13.70;;;10.40;;
52158;SDS011;38145;53.182;6.284;2023-05-10T01:01:23;12.55;;;11.15;;
52158;SDS011;38145;53.182;6.284;2023-05-10T01:03:50;13.02;;;10.90;;
52158;SDS011;38145;53.182;6.284;2023-05-10T01:06:17;13.98;;;11.23;;
52158;SDS011;38145;53.182;6.284;2023-05-10T01:08:43;13.40;;;11.48;;
52158;SDS011;38145;53.182;6.284;2023-05-10T01:11:10;11.02;;;9.90;;
52158;SDS011;38145;53.182;6.284;2023-05-10T01:13:36;11.98;;;10.30;;
52158;SDS011;38145;53.182;6.284;2023-05-10T01:16:04;10.82;;;9.73;;
52158;SDS011;38145;53.182;6.284;2023-05-10T01:18:33;11.15;;;9.52;;
52158;SDS011;38145;53.182;6.284;2023-05-10T01:24:00;10.77;;;9.68;;
52158;SDS011;38145;53.182;6.284;2023-05-10T01:29:20;10.50;;;9.50;;
52158;SDS011;38145;53.182;6.284;2023-05-10T01:32:16;10.35;;;9.35;;
52158;SDS011;38145;53.182;6.284;2023-05-10T01:34:53;7.45;;;6.75;;
52158;SDS011;38145;53.182;6.284;2023-05-10T01:37:33;8.63;;;7.82;;
52158;SDS011;38145;53.182;6.284;2023-05-10T01:42:36;9.35;;;8.50;;
52158;SDS011;38145;53.182;6.284;2023-05-10T01:45:13;9.55;;;8.65;;
52158;SDS011;38145;53.182;6.284;2023-05-10T01:47:54;8.93;;;8.10;;
52158;SDS011;38145;53.182;6.284;2023-05-10T01:50:34;9.10;;;8.20;;
52158;SDS011;38145;53.182;6.284;2023-05-10T01:53:02;9.57;;;8.57;;
52158;SDS011;38145;53.182;6.284;2023-05-10T01:55:35;10.55;;;9.10;;
52158;SDS011;38145;53.182;6.284;2023-05-10T01:58:09;10.27;;;9.05;;
52158;SDS011;38145;53.182;6.284;2023-05-10T02:00:39;11.75;;;10.02;;
52158;SDS011;38145;53.182;6.284;2023-05-10T02:03:08;11.02;;;9.93;;
52158;SDS011;38145;53.182;6.284;2023-05-10T02:08:03;13.73;;;11.48;;
52158;SDS011;38145;53.182;6.284;2023-05-10T02:10:32;16.13;;;11.70;;
52158;SDS011;38145;53.182;6.284;2023-05-10T02:13:00;17.25;;;13.48;;
52158;SDS011;38145;53.182;6.284;2023-05-10T02:15:28;16.90;;;13.43;;
52158;SDS011;38145;53.182;6.284;2023-05-10T02:17:55;14.75;;;13.15;;
52158;SDS011;38145;53.182;6.284;2023-05-10T02:20:24;17.33;;;13.95;;
52158;SDS011;38145;53.182;6.284;2023-05-10T02:22:51;18.53;;;15.03;;
52158;SDS011;38145;53.182;6.284;2023-05-10T02:25:20;18.77;;;14.88;;
52158;SDS011;38145;53.182;6.284;2023-05-10T02:27:47;18.13;;;14.38;;
52158;SDS011;38145;53.182;6.284;2023-05-10T02:30:14;17.15;;;14.35;;
52158;SDS011;38145;53.182;6.284;2023-05-10T02:32:42;16.70;;;13.52;;
52158;SDS011;38145;53.182;6.284;2023-05-10T02:35:09;20.33;;;15.02;;
52158;SDS011;38145;53.182;6.284;2023-05-10T02:40:05;19.67;;;14.50;;
52158;SDS011;38145;53.182;6.284;2023-05-10T02:42:33;18.00;;;15.20;;
52158;SDS011;38145;53.182;6.284;2023-05-10T02:45:03;21.58;;;16.45;;
52158;SDS011;38145;53.182;6.284;2023-05-10T02:47:33;19.15;;;14.80;;
52158;SDS011;38145;53.182;6.284;2023-05-10T02:50:01;21.45;;;15.32;;
52158;SDS011;38145;53.182;6.284;2023-05-10T02:52:29;22.13;;;16.25;;
52158;SDS011;38145;53.182;6.284;2023-05-10T02:55:00;22.23;;;16.33;;
52158;SDS011;38145;53.182;6.284;2023-05-10T02:57:30;23.13;;;16.52;;
52158;SDS011;38145;53.182;6.284;2023-05-10T02:59:59;24.10;;;17.83;;
52158;SDS011;38145;53.182;6.284;2023-05-10T03:02:26;25.10;;;17.20;;
52158;SDS011;38145;53.182;6.284;2023-05-10T03:04:53;25.98;;;18.73;;
52158;SDS011;38145;53.182;6.284;2023-05-10T03:07:20;27.08;;;18.70;;
52158;SDS011;38145;53.182;6.284;2023-05-10T03:09:48;29.75;;;19.15;;
52158;SDS011;38145;53.182;6.284;2023-05-10T03:12:25;26.70;;;18.58;;
52158;SDS011;38145;53.182;6.284;2023-05-10T03:15:05;29.50;;;20.73;;
52158;SDS011;38145;53.182;6.284;2023-05-10T03:17:46;28.77;;;19.30;;
52158;SDS011;38145;53.182;6.284;2023-05-10T03:20:29;29.85;;;18.73;;
52158;SDS011;38145;53.182;6.284;2023-05-10T03:23:05;34.40;;;19.88;;
52158;SDS011;38145;53.182;6.284;2023-05-10T03:25:37;31.25;;;19.42;;
52158;SDS011;38145;53.182;6.284;2023-05-10T03:28:05;26.45;;;19.25;;
52158;SDS011;38145;53.182;6.284;2023-05-10T03:30:32;30.20;;;19.88;;
52158;SDS011;38145;53.182;6.284;2023-05-10T03:33:04;30.38;;;18.10;;
52158;SDS011;38145;53.182;6.284;2023-05-10T03:35:31;28.02;;;17.40;;
52158;SDS011;38145;53.182;6.284;2023-05-10T03:37:58;26.17;;;17.65;;
52158;SDS011;38145;53.182;6.284;2023-05-10T03:40:24;26.00;;;16.48;;
52158;SDS011;38145;53.182;6.284;2023-05-10T03:42:51;23.25;;;14.88;;
52158;SDS011;38145;53.182;6.284;2023-05-10T03:45:17;19.30;;;14.40;;
52158;SDS011;38145;53.182;6.284;2023-05-10T03:47:43;16.17;;;11.55;;
52158;SDS011;38145;53.182;6.284;2023-05-10T03:50:09;15.18;;;10.00;;
52158;SDS011;38145;53.182;6.284;2023-05-10T03:52:35;16.38;;;10.60;;
52158;SDS011;38145;53.182;6.284;2023-05-10T03:55:04;8.68;;;7.38;;
52158;SDS011;38145;53.182;6.284;2023-05-10T03:57:31;7.35;;;6.25;;
52158;SDS011;38145;53.182;6.284;2023-05-10T03:59:57;7.18;;;5.57;;
52158;SDS011;38145;53.182;6.284;2023-05-10T04:02:23;5.80;;;5.22;;
52158;SDS011;38145;53.182;6.284;2023-05-10T04:04:50;5.45;;;4.60;;
52158;SDS011;38145;53.182;6.284;2023-05-10T04:07:16;4.25;;;3.85;;
52158;SDS011;38145;53.182;6.284;2023-05-10T04:09:42;5.10;;;4.05;;
52158;SDS011;38145;53.182;6.284;2023-05-10T04:12:08;4.53;;;4.13;;
52158;SDS011;38145;53.182;6.284;2023-05-10T04:14:34;5.07;;;3.92;;
52158;SDS011;38145;53.182;6.284;2023-05-10T04:17:00;4.70;;;4.30;;
52158;SDS011;38145;53.182;6.284;2023-05-10T04:19:30;5.03;;;4.53;;
52158;SDS011;38145;53.182;6.284;2023-05-10T04:21:56;5.07;;;4.35;;
52158;SDS011;38145;53.182;6.284;2023-05-10T04:24:23;6.60;;;5.90;;
52158;SDS011;38145;53.182;6.284;2023-05-10T04:26:49;6.47;;;5.30;;
52158;SDS011;38145;53.182;6.284;2023-05-10T04:29:16;11.00;;;6.65;;
52158;SDS011;38145;53.182;6.284;2023-05-10T04:31:42;8.70;;;6.25;;
52158;SDS011;38145;53.182;6.284;2023-05-10T04:34:08;8.23;;;6.20;;
52158;SDS011;38145;53.182;6.284;2023-05-10T04:36:34;10.48;;;7.00;;
52158;SDS011;38145;53.182;6.284;2023-05-10T04:39:02;10.80;;;7.75;;
52158;SDS011;38145;53.182;6.284;2023-05-10T04:41:28;13.23;;;7.87;;
52158;SDS011;38145;53.182;6.284;2023-05-10T04:43:55;11.20;;;7.70;;
52158;SDS011;38145;53.182;6.284;2023-05-10T04:46:22;11.07;;;8.47;;
52158;SDS011;38145;53.182;6.284;2023-05-10T04:48:49;14.27;;;8.25;;
52158;SDS011;38145;53.182;6.284;2023-05-10T04:51:15;11.73;;;8.57;;
52158;SDS011;38145;53.182;6.284;2023-05-10T04:53:42;14.02;;;8.85;;
52158;SDS011;38145;53.182;6.284;2023-05-10T04:56:08;19.17;;;9.50;;
52158;SDS011;38145;53.182;6.284;2023-05-10T04:58:34;11.23;;;8.98;;
52158;SDS011;38145;53.182;6.284;2023-05-10T05:01:06;13.63;;;8.82;;
52158;SDS011;38145;53.182;6.284;2023-05-10T05:03:34;13.02;;;9.05;;
52158;SDS011;38145;53.182;6.284;2023-05-10T05:06:01;12.73;;;9.10;;
52158;SDS011;38145;53.182;6.284;2023-05-10T05:08:27;13.52;;;9.45;;
52158;SDS011;38145;53.182;6.284;2023-05-10T05:10:53;15.15;;;9.82;;
52158;SDS011;38145;53.182;6.284;2023-05-10T05:13:19;12.05;;;7.95;;
52158;SDS011;38145;53.182;6.284;2023-05-10T05:15:45;13.13;;;8.55;;
52158;SDS011;38145;53.182;6.284;2023-05-10T05:18:12;13.88;;;9.23;;
52158;SDS011;38145;53.182;6.284;2023-05-10T05:20:37;13.48;;;8.65;;
52158;SDS011;38145;53.182;6.284;2023-05-10T05:23:04;14.68;;;8.90;;
52158;SDS011;38145;53.182;6.284;2023-05-10T05:25:30;13.05;;;9.27;;
52158;SDS011;38145;53.182;6.284;2023-05-10T05:27:56;10.70;;;8.27;;
52158;SDS011;38145;53.182;6.284;2023-05-10T05:30:22;13.43;;;9.07;;
52158;SDS011;38145;53.182;6.284;2023-05-10T05:32:48;10.77;;;8.38;;
52158;SDS011;38145;53.182;6.284;2023-05-10T05:35:14;11.25;;;8.60;;
52158;SDS011;38145;53.182;6.284;2023-05-10T05:37:41;11.52;;;9.27;;
52158;SDS011;38145;53.182;6.284;2023-05-10T05:40:07;11.95;;;8.45;;
52158;SDS011;38145;53.182;6.284;2023-05-10T05:42:33;16.17;;;9.40;;
52158;SDS011;38145;53.182;6.284;2023-05-10T05:44:59;21.75;;;11.82;;
52158;SDS011;38145;53.182;6.284;2023-05-10T05:47:25;22.42;;;12.43;;
52158;SDS011;38145;53.182;6.284;2023-05-10T05:49:51;29.10;;;13.88;;
52158;SDS011;38145;53.182;6.284;2023-05-10T05:52:17;31.90;;;16.25;;
52158;SDS011;38145;53.182;6.284;2023-05-10T05:54:43;31.52;;;18.83;;
52158;SDS011;38145;53.182;6.284;2023-05-10T05:57:09;30.85;;;18.08;;
52158;SDS011;38145;53.182;6.284;2023-05-10T05:59:35;35.83;;;19.50;;
52158;SDS011;38145;53.182;6.284;2023-05-10T06:02:01;29.85;;;18.17;;
52158;SDS011;38145;53.182;6.284;2023-05-10T06:04:26;31.30;;;18.13;;
52158;SDS011;38145;53.182;6.284;2023-05-10T06:06:52;22.83;;;15.18;;
52158;SDS011;38145;53.182;6.284;2023-05-10T06:09:18;21.63;;;12.95;;
52158;SDS011;38145;53.182;6.284;2023-05-10T06:11:44;12.63;;;9.15;;
52158;SDS011;38145;53.182;6.284;2023-05-10T06:14:10;9.15;;;6.35;;
52158;SDS011;38145;53.182;6.284;2023-05-10T06:16:36;6.90;;;4.80;;
52158;SDS011;38145;53.182;6.284;2023-05-10T06:19:02;5.82;;;4.00;;
52158;SDS011;38145;53.182;6.284;2023-05-10T06:21:28;3.88;;;3.47;;
52158;SDS011;38145;53.182;6.284;2023-05-10T06:23:55;3.60;;;3.30;;
52158;SDS011;38145;53.182;6.284;2023-05-10T06:26:21;3.65;;;2.97;;
52158;SDS011;38145;53.182;6.284;2023-05-10T06:28:47;3.72;;;2.63;;
52158;SDS011;38145;53.182;6.284;2023-05-10T06:31:13;6.05;;;2.67;;
52158;SDS011;38145;53.182;6.284;2023-05-10T06:33:39;4.22;;;3.13;;
52158;SDS011;38145;53.182;6.284;2023-05-10T06:36:06;2.90;;;2.60;;
52158;SDS011;38145;53.182;6.284;2023-05-10T06:38:31;3.42;;;3.13;;
52158;SDS011;38145;53.182;6.284;2023-05-10T06:40:58;6.55;;;3.55;;
52158;SDS011;38145;53.182;6.284;2023-05-10T06:43:24;3.45;;;3.15;;
52158;SDS011;38145;53.182;6.284;2023-05-10T06:45:51;3.47;;;3.08;;
52158;SDS011;38145;53.182;6.284;2023-05-10T06:48:17;4.93;;;3.42;;
52158;SDS011;38145;53.182;6.284;2023-05-10T06:50:43;4.35;;;3.28;;
52158;SDS011;38145;53.182;6.284;2023-05-10T06:53:09;4.18;;;3.78;;
52158;SDS011;38145;53.182;6.284;2023-05-10T06:55:36;4.77;;;4.27;;
52158;SDS011;38145;53.182;6.284;2023-05-10T06:58:02;5.00;;;4.25;;
52158;SDS011;38145;53.182;6.284;2023-05-10T07:00:28;5.07;;;4.68;;
52158;SDS011;38145;53.182;6.284;2023-05-10T07:02:54;5.35;;;4.85;;
52158;SDS011;38145;53.182;6.284;2023-05-10T07:05:21;5.78;;;4.80;;
52158;SDS011;38145;53.182;6.284;2023-05-10T07:07:47;5.38;;;4.88;;
52158;SDS011;38145;53.182;6.284;2023-05-10T07:10:13;5.15;;;4.65;;
52158;SDS011;38145;53.182;6.284;2023-05-10T07:12:39;5.55;;;5.03;;
52158;SDS011;38145;53.182;6.284;2023-05-10T07:15:05;5.18;;;4.70;;
52158;SDS011;38145;53.182;6.284;2023-05-10T07:17:31;5.85;;;5.15;;
52158;SDS011;38145;53.182;6.284;2023-05-10T07:19:58;6.15;;;5.55;;
52158;SDS011;38145;53.182;6.284;2023-05-10T07:22:25;7.30;;;5.60;;
52158;SDS011;38145;53.182;6.284;2023-05-10T07:24:51;6.18;;;5.10;;
52158;SDS011;38145;53.182;6.284;2023-05-10T07:27:17;6.07;;;5.05;;
52158;SDS011;38145;53.182;6.284;2023-05-10T07:29:43;7.13;;;6.45;;
52158;SDS011;38145;53.182;6.284;2023-05-10T07:32:09;5.82;;;5.20;;
52158;SDS011;38145;53.182;6.284;2023-05-10T07:34:34;7.15;;;5.68;;
52158;SDS011;38145;53.182;6.284;2023-05-10T07:37:00;9.57;;;6.57;;
52158;SDS011;38145;53.182;6.284;2023-05-10T07:39:27;7.78;;;6.30;;
52158;SDS011;38145;53.182;6.284;2023-05-10T07:41:53;6.30;;;5.70;;
52158;SDS011;38145;53.182;6.284;2023-05-10T07:44:20;7.57;;;5.95;;
52158;SDS011;38145;53.182;6.284;2023-05-10T07:46:46;6.80;;;5.63;;
52158;SDS011;38145;53.182;6.284;2023-05-10T07:49:12;8.63;;;5.88;;
52158;SDS011;38145;53.182;6.284;2023-05-10T07:51:39;6.00;;;5.38;;
52158;SDS011;38145;53.182;6.284;2023-05-10T07:54:04;7.45;;;5.90;;
52158;SDS011;38145;53.182;6.284;2023-05-10T07:56:31;6.68;;;5.35;;
52158;SDS011;38145;53.182;6.284;2023-05-10T07:58:57;6.70;;;5.60;;
52158;SDS011;38145;53.182;6.284;2023-05-10T08:01:24;14.67;;;5.63;;
52158;SDS011;38145;53.182;6.284;2023-05-10T08:03:51;6.78;;;6.07;;
52158;SDS011;38145;53.182;6.284;2023-05-10T08:06:18;9.63;;;5.90;;
52158;SDS011;38145;53.182;6.284;2023-05-10T08:08:45;8.40;;;5.70;;
52158;SDS011;38145;53.182;6.284;2023-05-10T08:11:15;7.90;;;6.38;;
52158;SDS011;38145;53.182;6.284;2023-05-10T08:13:41;7.05;;;6.35;;
52158;SDS011;38145;53.182;6.284;2023-05-10T08:16:08;8.70;;;7.20;;
52158;SDS011;38145;53.182;6.284;2023-05-10T08:18:34;7.47;;;6.45;;
52158;SDS011;38145;53.182;6.284;2023-05-10T08:20:59;8.35;;;6.85;;
52158;SDS011;38145;53.182;6.284;2023-05-10T08:23:25;10.38;;;7.35;;
52158;SDS011;38145;53.182;6.284;2023-05-10T08:25:51;9.60;;;7.53;;
52158;SDS011;38145;53.182;6.284;2023-05-10T08:28:17;9.20;;;8.30;;
52158;SDS011;38145;53.182;6.284;2023-05-10T08:30:43;12.02;;;8.88;;
52158;SDS011;38145;53.182;6.284;2023-05-10T08:33:09;10.23;;;7.88;;
52158;SDS011;38145;53.182;6.284;2023-05-10T08:35:35;9.93;;;8.73;;
52158;SDS011;38145;53.182;6.284;2023-05-10T08:38:01;11.02;;;8.05;;
52158;SDS011;38145;53.182;6.284;2023-05-10T08:40:27;8.02;;;7.15;;
52158;SDS011;38145;53.182;6.284;2023-05-10T08:42:55;11.80;;;7.95;;
52158;SDS011;38145;53.182;6.284;2023-05-10T08:45:32;13.07;;;8.32;;
52158;SDS011;38145;53.182;6.284;2023-05-10T08:48:02;9.85;;;7.75;;
52158;SDS011;38145;53.182;6.284;2023-05-10T08:50:31;8.35;;;7.50;;
52158;SDS011;38145;53.182;6.284;2023-05-10T08:53:00;9.75;;;8.05;;
52158;SDS011;38145;53.182;6.284;2023-05-10T08:55:29;10.07;;;7.80;;
52158;SDS011;38145;53.182;6.284;2023-05-10T08:57:55;11.90;;;7.03;;
52158;SDS011;38145;53.182;6.284;2023-05-10T09:00:22;11.48;;;8.30;;
52158;SDS011;38145;53.182;6.284;2023-05-10T09:02:49;16.05;;;10.05;;
52158;SDS011;38145;53.182;6.284;2023-05-10T09:05:15;15.88;;;8.80;;
52158;SDS011;38145;53.182;6.284;2023-05-10T09:07:42;11.48;;;8.43;;
52158;SDS011;38145;53.182;6.284;2023-05-10T09:10:09;10.18;;;7.80;;
52158;SDS011;38145;53.182;6.284;2023-05-10T09:12:36;12.45;;;8.02;;
52158;SDS011;38145;53.182;6.284;2023-05-10T09:15:03;10.02;;;8.15;;
52158;SDS011;38145;53.182;6.284;2023-05-10T09:17:30;10.18;;;7.93;;
52158;SDS011;38145;53.182;6.284;2023-05-10T09:19:58;13.05;;;7.93;;
52158;SDS011;38145;53.182;6.284;2023-05-10T09:22:25;10.40;;;7.60;;
52158;SDS011;38145;53.182;6.284;2023-05-10T09:25:07;10.77;;;7.28;;
52158;SDS011;38145;53.182;6.284;2023-05-10T09:27:34;10.40;;;7.43;;
52158;SDS011;38145;53.182;6.284;2023-05-10T09:30:01;7.35;;;6.05;;
52158;SDS011;38145;53.182;6.284;2023-05-10T09:32:36;7.70;;;6.05;;
52158;SDS011;38145;53.182;6.284;2023-05-10T09:35:09;8.35;;;6.55;;
52158;SDS011;38145;53.182;6.284;2023-05-10T09:37:39;6.18;;;4.78;;
52158;SDS011;38145;53.182;6.284;2023-05-10T09:40:07;5.55;;;4.97;;
52158;SDS011;38145;53.182;6.284;2023-05-10T09:42:36;10.77;;;5.03;;
52158;SDS011;38145;53.182;6.284;2023-05-10T09:45:02;8.68;;;5.60;;
52158;SDS011;38145;53.182;6.284;2023-05-10T09:47:31;8.10;;;4.72;;
52158;SDS011;38145;53.182;6.284;2023-05-10T09:49:59;7.65;;;5.40;;
52158;SDS011;38145;53.182;6.284;2023-05-10T09:52:30;6.78;;;5.80;;
52158;SDS011;38145;53.182;6.284;2023-05-10T09:55:12;7.82;;;6.28;;
52158;SDS011;38145;53.182;6.284;2023-05-10T09:57:40;7.93;;;5.97;;
52158;SDS011;38145;53.182;6.284;2023-05-10T10:00:06;8.00;;;5.40;;
52158;SDS011;38145;53.182;6.284;2023-05-10T10:02:32;9.57;;;6.20;;
52158;SDS011;38145;53.182;6.284;2023-05-10T10:05:00;6.57;;;5.38;;
52158;SDS011;38145;53.182;6.284;2023-05-10T10:07:28;7.78;;;6.32;;
52158;SDS011;38145;53.182;6.284;2023-05-10T10:09:54;7.13;;;5.97;;
52158;SDS011;38145;53.182;6.284;2023-05-10T10:12:20;8.60;;;6.63;;
52158;SDS011;38145;53.182;6.284;2023-05-10T10:14:47;9.90;;;6.47;;
52158;SDS011;38145;53.182;6.284;2023-05-10T10:17:14;10.48;;;6.15;;
52158;SDS011;38145;53.182;6.284;2023-05-10T10:19:40;8.60;;;6.45;;
52158;SDS011;38145;53.182;6.284;2023-05-10T10:22:07;8.88;;;6.43;;
52158;SDS011;38145;53.182;6.284;2023-05-10T10:24:33;7.80;;;6.35;;
52158;SDS011;38145;53.182;6.284;2023-05-10T10:27:06;8.93;;;7.05;;
52158;SDS011;38145;53.182;6.284;2023-05-10T10:29:44;9.85;;;6.88;;
52158;SDS011;38145;53.182;6.284;2023-05-10T10:32:24;8.52;;;6.65;;
52158;SDS011;38145;53.182;6.284;2023-05-10T10:34:51;9.75;;;6.70;;
52158;SDS011;38145;53.182;6.284;2023-05-10T10:37:19;11.52;;;8.43;;
52158;SDS011;38145;53.182;6.284;2023-05-10T10:39:47;11.10;;;8.15;;
52158;SDS011;38145;53.182;6.284;2023-05-10T10:42:14;9.95;;;7.95;;
52158;SDS011;38145;53.182;6.284;2023-05-10T10:45:12;8.70;;;7.00;;
52158;SDS011;38145;53.182;6.284;2023-05-10T10:47:38;12.00;;;7.83;;
52158;SDS011;38145;53.182;6.284;2023-05-10T10:50:05;9.07;;;7.38;;
52158;SDS011;38145;53.182;6.284;2023-05-10T10:52:34;12.80;;;8.55;;
52158;SDS011;38145;53.182;6.284;2023-05-10T10:57:32;10.50;;;7.80;;
52158;SDS011;38145;53.182;6.284;2023-05-10T11:02:48;10.05;;;8.10;;
52158;SDS011;38145;53.182;6.284;2023-05-10T11:05:24;15.23;;;8.77;;
52158;SDS011;38145;53.182;6.284;2023-05-10T11:08:06;11.25;;;8.63;;
52158;SDS011;38145;53.182;6.284;2023-05-10T11:10:34;15.38;;;10.07;;
52158;SDS011;38145;53.182;6.284;2023-05-10T11:13:00;15.98;;;9.18;;
52158;SDS011;38145;53.182;6.284;2023-05-10T11:15:29;11.77;;;9.65;;
52158;SDS011;38145;53.182;6.284;2023-05-10T11:17:56;15.73;;;10.40;;
52158;SDS011;38145;53.182;6.284;2023-05-10T11:20:22;15.48;;;9.57;;
52158;SDS011;38145;53.182;6.284;2023-05-10T11:22:53;15.93;;;10.98;;
52158;SDS011;38145;53.182;6.284;2023-05-10T11:25:26;13.63;;;9.50;;
52158;SDS011;38145;53.182;6.284;2023-05-10T11:27:53;14.65;;;9.57;;
52158;SDS011;38145;53.182;6.284;2023-05-10T11:30:19;12.50;;;8.77;;
52158;SDS011;38145;53.182;6.284;2023-05-10T11:32:45;13.27;;;8.57;;
52158;SDS011;38145;53.182;6.284;2023-05-10T11:35:11;11.35;;;8.77;;
52158;SDS011;38145;53.182;6.284;2023-05-10T11:37:38;12.30;;;9.00;;
52158;SDS011;38145;53.182;6.284;2023-05-10T11:40:09;13.68;;;8.82;;
52158;SDS011;38145;53.182;6.284;2023-05-10T11:42:36;15.73;;;8.95;;
52158;SDS011;38145;53.182;6.284;2023-05-10T11:45:03;17.90;;;9.35;;
52158;SDS011;38145;53.182;6.284;2023-05-10T11:47:29;13.40;;;8.73;;
52158;SDS011;38145;53.182;6.284;2023-05-10T11:49:55;13.98;;;8.88;;
52158;SDS011;38145;53.182;6.284;2023-05-10T11:52:22;12.23;;;7.70;;
52158;SDS011;38145;53.182;6.284;2023-05-10T11:54:51;11.77;;;8.35;;
52158;SDS011;38145;53.182;6.284;2023-05-10T11:57:18;8.68;;;7.07;;
52158;SDS011;38145;53.182;6.284;2023-05-10T11:59:46;11.63;;;7.50;;
52158;SDS011;38145;53.182;6.284;2023-05-10T12:02:13;11.77;;;7.07;;
52158;SDS011;38145;53.182;6.284;2023-05-10T12:04:40;12.75;;;8.30;;
52158;SDS011;38145;53.182;6.284;2023-05-10T12:07:06;7.55;;;6.05;;
52158;SDS011;38145;53.182;6.284;2023-05-10T12:09:32;11.88;;;7.05;;
52158;SDS011;38145;53.182;6.284;2023-05-10T12:11:58;10.50;;;8.13;;
52158;SDS011;38145;53.182;6.284;2023-05-10T12:14:24;11.25;;;8.07;;
52158;SDS011;38145;53.182;6.284;2023-05-10T12:16:50;10.05;;;7.38;;
52158;SDS011;38145;53.182;6.284;2023-05-10T12:19:19;11.27;;;8.10;;
52158;SDS011;38145;53.182;6.284;2023-05-10T12:21:46;10.82;;;8.55;;
52158;SDS011;38145;53.182;6.284;2023-05-10T12:24:12;11.88;;;7.82;;
52158;SDS011;38145;53.182;6.284;2023-05-10T12:26:41;11.40;;;8.40;;
52158;SDS011;38145;53.182;6.284;2023-05-10T12:29:14;13.25;;;8.88;;
52158;SDS011;38145;53.182;6.284;2023-05-10T12:31:49;13.60;;;8.70;;
52158;SDS011;38145;53.182;6.284;2023-05-10T12:34:24;12.43;;;8.05;;
52158;SDS011;38145;53.182;6.284;2023-05-10T12:36:52;10.85;;;8.70;;
52158;SDS011;38145;53.182;6.284;2023-05-10T12:39:19;9.80;;;7.70;;
52158;SDS011;38145;53.182;6.284;2023-05-10T12:41:44;10.23;;;7.65;;
52158;SDS011;38145;53.182;6.284;2023-05-10T12:44:10;9.40;;;7.53;;
52158;SDS011;38145;53.182;6.284;2023-05-10T12:46:36;9.70;;;8.30;;
52158;SDS011;38145;53.182;6.284;2023-05-10T12:49:02;9.48;;;6.90;;
52158;SDS011;38145;53.182;6.284;2023-05-10T12:51:28;10.93;;;8.82;;
52158;SDS011;38145;53.182;6.284;2023-05-10T12:53:53;8.10;;;6.53;;
52158;SDS011;38145;53.182;6.284;2023-05-10T12:56:20;9.65;;;6.85;;
52158;SDS011;38145;53.182;6.284;2023-05-10T12:58:46;8.82;;;6.43;;
52158;SDS011;38145;53.182;6.284;2023-05-10T13:01:13;8.73;;;6.25;;
52158;SDS011;38145;53.182;6.284;2023-05-10T13:03:40;9.35;;;6.05;;
52158;SDS011;38145;53.182;6.284;2023-05-10T13:06:08;8.57;;;6.28;;
52158;SDS011;38145;53.182;6.284;2023-05-10T13:08:34;8.07;;;6.97;;
52158;SDS011;38145;53.182;6.284;2023-05-10T13:11:00;9.57;;;6.65;;
52158;SDS011;38145;53.182;6.284;2023-05-10T13:13:26;7.07;;;6.28;;
52158;SDS011;38145;53.182;6.284;2023-05-10T13:15:52;8.48;;;6.55;;
52158;SDS011;38145;53.182;6.284;2023-05-10T13:18:18;9.57;;;7.43;;
52158;SDS011;38145;53.182;6.284;2023-05-10T13:20:44;8.80;;;7.57;;
52158;SDS011;38145;53.182;6.284;2023-05-10T13:23:10;11.20;;;8.60;;
52158;SDS011;38145;53.182;6.284;2023-05-10T13:25:36;14.02;;;9.52;;
52158;SDS011;38145;53.182;6.284;2023-05-10T13:28:03;10.93;;;9.07;;
52158;SDS011;38145;53.182;6.284;2023-05-10T13:30:28;12.93;;;8.90;;
52158;SDS011;38145;53.182;6.284;2023-05-10T13:32:54;10.60;;;8.18;;
52158;SDS011;38145;53.182;6.284;2023-05-10T13:35:20;10.40;;;8.40;;
52158;SDS011;38145;53.182;6.284;2023-05-10T13:37:46;10.20;;;7.55;;
52158;SDS011;38145;53.182;6.284;2023-05-10T13:40:12;11.90;;;8.10;;
52158;SDS011;38145;53.182;6.284;2023-05-10T13:42:38;13.60;;;8.40;;
52158;SDS011;38145;53.182;6.284;2023-05-10T13:45:04;10.07;;;8.30;;
52158;SDS011;38145;53.182;6.284;2023-05-10T13:47:31;10.88;;;8.65;;
52158;SDS011;38145;53.182;6.284;2023-05-10T13:49:57;11.68;;;9.32;;
52158;SDS011;38145;53.182;6.284;2023-05-10T13:52:23;10.77;;;8.65;;
52158;SDS011;38145;53.182;6.284;2023-05-10T13:54:49;13.32;;;9.38;;
52158;SDS011;38145;53.182;6.284;2023-05-10T13:57:17;13.27;;;9.40;;
52158;SDS011;38145;53.182;6.284;2023-05-10T13:59:43;12.07;;;9.30;;
52158;SDS011;38145;53.182;6.284;2023-05-10T14:02:09;13.40;;;9.00;;
52158;SDS011;38145;53.182;6.284;2023-05-10T14:04:37;11.52;;;9.80;;
52158;SDS011;38145;53.182;6.284;2023-05-10T14:07:03;13.23;;;8.95;;
52158;SDS011;38145;53.182;6.284;2023-05-10T14:09:29;13.88;;;9.55;;
52158;SDS011;38145;53.182;6.284;2023-05-10T14:11:55;13.18;;;9.77;;
52158;SDS011;38145;53.182;6.284;2023-05-10T14:14:21;11.07;;;8.85;;
52158;SDS011;38145;53.182;6.284;2023-05-10T14:16:47;10.98;;;9.52;;
52158;SDS011;38145;53.182;6.284;2023-05-10T14:19:13;11.63;;;8.65;;
52158;SDS011;38145;53.182;6.284;2023-05-10T14:21:39;11.40;;;9.02;;
52158;SDS011;38145;53.182;6.284;2023-05-10T14:24:05;11.23;;;8.00;;
52158;SDS011;38145;53.182;6.284;2023-05-10T14:26:32;11.60;;;8.52;;
52158;SDS011;38145;53.182;6.284;2023-05-10T14:28:59;14.40;;;9.57;;
52158;SDS011;38145;53.182;6.284;2023-05-10T14:31:25;9.52;;;7.85;;
52158;SDS011;38145;53.182;6.284;2023-05-10T14:33:51;14.48;;;9.25;;
52158;SDS011;38145;53.182;6.284;2023-05-10T14:36:17;13.55;;;10.25;;
52158;SDS011;38145;53.182;6.284;2023-05-10T14:38:43;13.18;;;10.02;;
52158;SDS011;38145;53.182;6.284;2023-05-10T14:41:09;16.45;;;10.77;;
52158;SDS011;38145;53.182;6.284;2023-05-10T14:43:39;13.75;;;9.25;;
52158;SDS011;38145;53.182;6.284;2023-05-10T14:46:05;13.93;;;8.65;;
52158;SDS011;38145;53.182;6.284;2023-05-10T14:48:31;12.90;;;8.45;;
52158;SDS011;38145;53.182;6.284;2023-05-10T14:50:57;10.20;;;8.27;;
52158;SDS011;38145;53.182;6.284;2023-05-10T14:53:23;9.80;;;8.20;;
52158;SDS011;38145;53.182;6.284;2023-05-10T14:55:49;8.77;;;7.20;;